createdAt,value
2022-10-23T00:02:29.701Z,1.10
2022-10-23T00:07:31.939Z,0.93
2022-10-23T00:12:34.038Z,1.00
2022-10-23T00:17:36.092Z,1.35
2022-10-23T00:22:39.017Z,1.65
2022-10-23T00:27:41.484Z,1.83
2022-10-23T00:32:43.761Z,1.17
2022-10-23T00:37:45.823Z,1.13
2022-10-23T00:42:48.180Z,1.37
2022-10-23T00:47:50.649Z,1.75
2022-10-23T00:52:56.030Z,1.00
2022-10-23T00:57:58.334Z,1.40
2022-10-23T01:03:00.553Z,1.12
2022-10-23T01:08:12.847Z,1.17
2022-10-23T01:13:39.604Z,0.87
2022-10-23T01:19:01.655Z,0.83
2022-10-23T01:24:10.519Z,1.43
2022-10-23T01:29:30.852Z,1.43
2022-10-23T01:34:46.935Z,0.60
2022-10-23T01:39:54.810Z,0.50
2022-10-23T01:45:06.706Z,0.50
2022-10-23T01:50:12.846Z,0.80
2022-10-23T01:55:17.612Z,0.43
2022-10-23T02:00:20.784Z,0.70
2022-10-23T02:05:28.308Z,0.63
2022-10-23T02:10:53.638Z,0.75
2022-10-23T02:16:20.300Z,0.55
2022-10-23T02:21:34.761Z,0.60
2022-10-23T02:26:42.191Z,0.80
2022-10-23T02:31:45.377Z,0.60
2022-10-23T02:36:47.510Z,0.68
2022-10-23T02:42:03.372Z,1.08
2022-10-23T02:47:26.142Z,0.80
2022-10-23T02:52:36.571Z,0.57
2022-10-23T02:57:48.872Z,0.60
2022-10-23T03:02:59.631Z,0.80
2022-10-23T03:08:08.069Z,0.60
2022-10-23T03:13:11.961Z,0.50
2022-10-23T03:18:14.960Z,0.50
2022-10-23T03:23:19.337Z,0.70
2022-10-23T03:28:23.444Z,0.40
2022-10-23T03:33:25.455Z,0.90
2022-10-23T03:38:27.549Z,0.70
2022-10-23T03:43:31.344Z,0.80
2022-10-23T03:48:33.401Z,1.40
2022-10-23T03:53:35.885Z,1.20
2022-10-23T03:58:38.043Z,1.05
2022-10-23T04:03:40.188Z,0.77
2022-10-23T04:08:45.500Z,0.90
2022-10-23T04:13:48.662Z,0.70
2022-10-23T04:18:51.294Z,1.20
2022-10-23T04:23:53.356Z,1.10
2022-10-23T04:28:55.537Z,2.17
2022-10-23T04:33:57.784Z,1.23
2022-10-23T04:39:01.135Z,1.07
2022-10-23T04:44:03.264Z,0.85
2022-10-23T04:49:09.008Z,0.60
2022-10-23T04:54:15.449Z,0.45
2022-10-23T04:59:18.302Z,0.50
2022-10-23T05:04:20.800Z,0.50
2022-10-23T05:09:27.943Z,0.70
2022-10-23T05:14:30.041Z,0.98
2022-10-23T05:19:37.573Z,0.93
2022-10-23T05:24:40.184Z,0.85
2022-10-23T05:29:42.370Z,0.90
2022-10-23T05:34:44.656Z,1.23
2022-10-23T05:39:46.950Z,1.00
2022-10-23T05:44:49.500Z,0.93
2022-10-23T05:49:52.348Z,0.80
2022-10-23T05:54:55.747Z,0.90
2022-10-23T05:59:57.857Z,1.15
2022-10-23T06:05:05.431Z,1.10
2022-10-23T06:10:10.699Z,1.15
2022-10-23T06:15:14.016Z,1.15
2022-10-23T06:20:19.973Z,0.60
2022-10-23T06:25:26.895Z,0.55
2022-10-23T06:30:31.703Z,0.60
2022-10-23T06:35:34.986Z,0.50
2022-10-23T06:40:37.720Z,1.10
2022-10-23T06:45:40.549Z,1.40
2022-10-23T06:50:48.455Z,0.70
2022-10-23T06:55:55.333Z,1.03
2022-10-23T07:01:01.938Z,0.90
2022-10-23T07:06:06.423Z,2.43
2022-10-23T07:11:10.938Z,1.03
2022-10-23T07:16:20.767Z,0.90
2022-10-23T07:21:23.185Z,1.07
2022-10-23T07:26:28.686Z,1.13
2022-10-23T07:31:32.550Z,1.00
2022-10-23T07:36:44.100Z,1.40
2022-10-23T07:41:46.159Z,1.50
2022-10-23T07:46:48.269Z,2.10
2022-10-23T07:51:51.781Z,1.83
2022-10-23T07:56:54.564Z,2.83
2022-10-23T08:01:57.256Z,2.53
2022-10-23T08:07:01.076Z,2.65
2022-10-23T08:12:04.825Z,2.70
2022-10-23T08:17:09.560Z,4.53
2022-10-23T08:22:16.307Z,4.65
2022-10-23T08:27:19.262Z,4.12
2022-10-23T08:32:22.473Z,4.22
2022-10-23T08:37:26.648Z,2.70
2022-10-23T08:42:29.238Z,3.22
2022-10-23T08:47:47.252Z,1.98
2022-10-23T08:53:19.868Z,1.65
2022-10-23T08:58:42.499Z,1.90
2022-10-23T09:03:44.546Z,1.60
2022-10-23T09:08:55.230Z,1.73
2022-10-23T09:14:33.090Z,1.60
2022-10-23T09:19:35.282Z,1.60
2022-10-23T09:24:37.412Z,1.42
2022-10-23T09:29:52.212Z,2.05
2022-10-23T09:34:55.567Z,1.30
2022-10-23T09:40:29.689Z,2.12
2022-10-23T09:45:35.391Z,1.48
2022-10-23T09:50:48.240Z,1.50
2022-10-23T09:55:55.942Z,1.58
2022-10-23T10:00:58.244Z,1.00
2022-10-23T10:06:24.135Z,1.65
2022-10-23T10:11:47.732Z,2.47
2022-10-23T10:22:29.565Z,30.35
2022-10-23T10:27:52.743Z,7.87
2022-10-23T10:33:09.984Z,3.33
2022-10-23T10:38:34.250Z,3.33
2022-10-23T10:43:51.051Z,2.10
2022-10-23T10:48:59.587Z,1.73
2022-10-23T10:54:38.548Z,1.85
2022-10-23T10:59:46.570Z,1.55
2022-10-23T11:04:58.232Z,1.80
2022-10-23T11:10:04.397Z,1.00
2022-10-23T11:15:13.971Z,1.40
2022-10-23T11:20:15.975Z,1.10
2022-10-23T11:25:36.888Z,1.00
2022-10-23T11:31:15.588Z,1.58
2022-10-23T11:36:20.923Z,1.37
2022-10-23T11:41:29.494Z,1.20
2022-10-23T11:46:37.146Z,0.80
2022-10-23T11:51:40.963Z,0.93
2022-10-23T11:57:09.281Z,1.37
2022-10-23T12:02:28.295Z,1.00
2022-10-23T12:07:34.458Z,0.93
2022-10-23T12:12:42.404Z,1.00
2022-10-23T12:17:45.655Z,1.20
2022-10-23T12:23:06.040Z,1.02
2022-10-23T12:28:55.570Z,1.50
2022-10-23T12:34:14.335Z,1.08
2022-10-23T12:39:29.286Z,0.85
2022-10-23T12:44:31.874Z,1.08
2022-10-23T12:49:35.518Z,1.23
2022-10-23T12:54:40.550Z,1.48
2022-10-23T12:59:43.853Z,1.00
2022-10-23T13:04:47.564Z,5.43
2022-10-23T13:09:50.000Z,1.37
2022-10-23T13:15:03.331Z,1.12
2022-10-23T13:20:32.159Z,1.55
2022-10-23T13:25:36.715Z,1.20
2022-10-23T13:30:42.664Z,1.23
2022-10-23T13:35:56.301Z,0.60
2022-10-23T13:41:00.407Z,1.08
2022-10-23T13:46:02.681Z,1.20
2022-10-23T13:51:13.660Z,1.10
2022-10-23T13:56:18.065Z,1.08
2022-10-23T14:01:24.888Z,0.73
2022-10-23T14:06:27.018Z,0.68
2022-10-23T14:11:29.130Z,0.90
2022-10-23T14:16:31.356Z,0.80
2022-10-23T14:21:33.507Z,0.80
2022-10-23T14:26:35.655Z,1.23
2022-10-23T14:31:37.812Z,1.08
2022-10-23T14:36:49.776Z,1.27
2022-10-23T14:41:53.218Z,1.65
2022-10-23T14:46:55.374Z,1.50
2022-10-23T14:51:58.038Z,1.05
2022-10-23T14:57:00.133Z,1.33
2022-10-23T15:02:02.191Z,1.20
2022-10-23T15:07:04.259Z,1.12
2022-10-23T15:12:07.833Z,1.25
2022-10-23T15:17:15.449Z,1.20
2022-10-23T15:22:19.425Z,1.05
2022-10-23T15:27:21.478Z,1.17
2022-10-23T15:32:23.654Z,1.15
2022-10-23T15:37:26.078Z,1.40
2022-10-23T15:47:30.170Z,1.20
2022-10-23T15:52:32.295Z,1.27
2022-10-23T15:57:34.664Z,0.75
2022-10-23T16:02:37.424Z,1.37
2022-10-23T16:07:39.734Z,1.27
2022-10-23T16:12:42.085Z,1.20
2022-10-23T16:17:44.763Z,1.42
2022-10-23T16:22:47.662Z,2.65
2022-10-23T16:27:49.794Z,1.23
2022-10-23T16:32:52.551Z,1.73
2022-10-23T16:37:54.669Z,2.00
2022-10-23T16:42:58.582Z,2.30
2022-10-23T16:48:01.692Z,2.45
2022-10-23T16:53:04.395Z,2.95
2022-10-23T17:03:09.580Z,2.00
2022-10-23T17:08:11.623Z,2.37
2022-10-23T17:13:13.786Z,2.58
2022-10-23T17:18:15.940Z,3.95
2022-10-23T17:23:18.071Z,1.95
2022-10-23T17:28:20.202Z,2.50
2022-10-23T17:33:22.987Z,7.00
2022-10-23T17:38:25.084Z,3.03
2022-10-23T17:43:27.185Z,6.28
2022-10-23T17:48:29.374Z,4.40
2022-10-23T17:53:31.917Z,4.12
2022-10-23T17:58:34.484Z,3.95
2022-10-23T18:08:40.636Z,3.58
2022-10-23T18:13:42.721Z,14.45
2022-10-23T18:18:48.128Z,32.47
2022-10-23T18:23:51.088Z,9.45
2022-10-23T18:28:59.046Z,5.05
2022-10-23T18:34:04.904Z,20.37
2022-10-23T18:39:09.612Z,10.55
2022-10-23T18:44:17.240Z,6.28
2022-10-23T18:49:20.301Z,5.90
2022-10-23T18:54:22.444Z,9.60
2022-10-23T18:59:24.617Z,4.37
2022-10-23T19:04:26.770Z,4.68
2022-10-23T19:09:28.897Z,3.78
2022-10-23T19:14:31.118Z,3.90
2022-10-23T19:19:43.387Z,3.47
2022-10-23T19:25:02.486Z,5.10
2022-10-23T19:30:08.782Z,4.03
2022-10-23T19:35:13.157Z,3.28
2022-10-23T19:40:15.930Z,4.40
2022-10-23T19:50:21.257Z,7.82
2022-10-23T19:55:23.354Z,3.12
2022-10-23T20:00:28.015Z,5.35
2022-10-23T20:05:30.718Z,3.17
2022-10-23T20:10:32.836Z,9.40
2022-10-23T20:15:38.847Z,16.58
2022-10-23T20:20:41.824Z,15.23
2022-10-23T20:25:44.040Z,4.93
2022-10-23T20:30:46.190Z,4.15
2022-10-23T20:35:48.514Z,6.32
2022-10-23T20:40:50.662Z,8.98
2022-10-23T20:45:53.030Z,10.40
2022-10-23T20:50:55.083Z,7.82
2022-10-23T20:55:57.188Z,7.47
2022-10-23T21:01:07.652Z,4.62
2022-10-23T21:06:13.782Z,5.10
2022-10-23T21:11:17.570Z,3.67
2022-10-23T21:16:26.083Z,2.90
2022-10-23T21:21:32.962Z,26.50
2022-10-23T21:26:35.203Z,38.22
2022-10-23T21:31:37.367Z,77.25
2022-10-23T21:36:53.877Z,22.25
2022-10-23T21:42:01.612Z,8.80
2022-10-23T21:47:03.806Z,6.28
2022-10-23T21:52:06.419Z,4.22
2022-10-23T22:02:15.056Z,2.55
2022-10-23T22:12:19.741Z,1.90
2022-10-23T22:17:21.918Z,2.60
2022-10-23T22:22:24.083Z,1.85
2022-10-23T22:27:26.220Z,2.15
2022-10-23T22:32:28.977Z,2.00
2022-10-23T22:42:33.156Z,2.60
2022-10-23T22:47:35.595Z,2.95
2022-10-23T22:52:37.677Z,3.28
2022-10-23T22:57:39.789Z,2.47
2022-10-23T23:02:41.929Z,2.28
2022-10-23T23:07:44.230Z,2.62
2022-10-23T23:12:46.494Z,2.83
2022-10-23T23:17:48.587Z,2.30
2022-10-23T23:22:50.701Z,2.08
2022-10-23T23:27:52.803Z,2.08
2022-10-23T23:32:54.907Z,2.35
2022-10-23T23:37:57.583Z,1.67
2022-10-23T23:42:59.741Z,2.10
2022-10-23T23:48:01.864Z,2.60
2022-10-23T23:53:04.003Z,2.27
2022-10-23T23:58:06.137Z,1.90
